createdAt,value
2023-01-29T00:01:47.942Z,3.22
2023-01-29T00:04:14.470Z,3.19
2023-01-29T00:06:40.930Z,3.22
2023-01-29T00:09:07.527Z,3.31
2023-01-29T00:11:34.939Z,3.26
2023-01-29T00:14:01.356Z,3.24
2023-01-29T00:16:27.874Z,3.30
2023-01-29T00:18:54.417Z,3.28
2023-01-29T00:21:22.265Z,3.24
2023-01-29T00:23:49.417Z,3.25
2023-01-29T00:26:17.138Z,3.17
2023-01-29T00:28:44.003Z,3.19
2023-01-29T00:31:15.675Z,3.23
2023-01-29T00:33:42.091Z,3.19
2023-01-29T00:36:11.329Z,3.19
2023-01-29T00:38:38.755Z,3.18
2023-01-29T00:41:34.399Z,3.19
2023-01-29T00:44:20.314Z,3.14
2023-01-29T00:46:46.969Z,3.19
2023-01-29T00:49:13.685Z,3.21
2023-01-29T00:51:40.338Z,3.25
2023-01-29T00:54:07.004Z,3.25
2023-01-29T00:56:37.513Z,3.25
2023-01-29T00:59:04.548Z,3.38
2023-01-29T01:01:49.928Z,3.29
2023-01-29T01:04:16.598Z,3.31
2023-01-29T01:06:43.137Z,3.20
2023-01-29T01:09:29.167Z,3.26
2023-01-29T01:11:55.663Z,3.28
2023-01-29T01:14:22.683Z,3.25
2023-01-29T01:16:49.794Z,3.22
2023-01-29T01:19:16.722Z,3.17
2023-01-29T01:21:45.561Z,3.23
2023-01-29T01:24:12.707Z,3.20
2023-01-29T01:26:39.181Z,3.20
2023-01-29T01:29:05.703Z,3.28
2023-01-29T01:31:32.200Z,3.15
2023-01-29T01:33:58.689Z,3.17
2023-01-29T01:36:25.143Z,3.22
2023-01-29T01:38:51.629Z,3.20
2023-01-29T01:41:21.770Z,3.23
2023-01-29T01:43:57.826Z,3.19
2023-01-29T01:46:28.262Z,3.23
2023-01-29T01:49:05.764Z,3.25
2023-01-29T01:51:36.325Z,3.23
2023-01-29T01:54:25.089Z,3.19
2023-01-29T01:56:55.636Z,3.20
2023-01-29T01:59:22.957Z,3.30
2023-01-29T02:01:54.011Z,3.29
2023-01-29T02:04:42.158Z,3.35
2023-01-29T02:07:31.117Z,3.19
2023-01-29T02:10:08.368Z,3.20
2023-01-29T02:12:36.923Z,3.24
2023-01-29T02:15:03.924Z,3.23
2023-01-29T02:17:31.333Z,3.24
2023-01-29T02:20:18.662Z,3.17
2023-01-29T02:22:55.385Z,3.16
2023-01-29T02:25:52.686Z,3.17
2023-01-29T02:28:36.544Z,3.19
2023-01-29T02:31:21.268Z,3.20
2023-01-29T02:34:06.329Z,3.19
2023-01-29T02:37:02.739Z,3.11
2023-01-29T02:39:34.125Z,3.01
2023-01-29T02:42:06.767Z,3.04
2023-01-29T02:44:50.963Z,3.14
2023-01-29T02:47:36.060Z,3.09
2023-01-29T02:50:21.149Z,3.07
2023-01-29T02:52:59.752Z,3.05
2023-01-29T02:55:32.569Z,2.97
2023-01-29T02:58:07.492Z,3.06
2023-01-29T03:00:39.572Z,3.13
2023-01-29T03:03:17.655Z,3.19
2023-01-29T03:06:07.568Z,3.25
2023-01-29T03:08:42.978Z,3.21
2023-01-29T03:11:15.307Z,3.23
2023-01-29T03:13:57.926Z,3.22
2023-01-29T03:16:28.056Z,3.22
2023-01-29T03:19:02.870Z,3.12
2023-01-29T03:21:55.245Z,3.03
2023-01-29T03:24:51.119Z,3.11
2023-01-29T03:27:40.786Z,3.05
2023-01-29T03:30:28.770Z,2.91
2023-01-29T03:32:57.647Z,3.00
2023-01-29T03:35:36.908Z,3.11
2023-01-29T03:38:06.205Z,3.01
2023-01-29T03:40:53.655Z,3.03
2023-01-29T03:43:35.064Z,3.05
2023-01-29T03:46:29.198Z,2.95
2023-01-29T03:49:14.517Z,2.93
2023-01-29T03:51:59.126Z,2.98
2023-01-29T03:54:35.157Z,3.07
2023-01-29T03:57:41.671Z,2.99
2023-01-29T04:03:24.629Z,3.13
2023-01-29T04:05:58.622Z,2.98
2023-01-29T04:08:30.786Z,3.04
2023-01-29T04:11:02.031Z,3.17
2023-01-29T04:13:33.829Z,3.14
2023-01-29T04:16:04.174Z,3.13
2023-01-29T04:18:30.703Z,3.13
2023-01-29T04:20:57.338Z,3.04
2023-01-29T04:23:26.514Z,3.10
2023-01-29T04:26:29.800Z,3.08
2023-01-29T04:29:15.276Z,3.10
2023-01-29T04:31:57.811Z,3.13
2023-01-29T04:34:29.161Z,3.09
2023-01-29T04:37:12.146Z,3.04
2023-01-29T04:39:54.793Z,3.09
2023-01-29T04:42:37.069Z,3.07
2023-01-29T04:45:25.846Z,2.96
2023-01-29T04:47:54.965Z,3.01
2023-01-29T04:50:28.361Z,3.06
2023-01-29T04:53:07.932Z,3.07
2023-01-29T04:55:47.460Z,3.06
2023-01-29T04:58:26.543Z,3.03
2023-01-29T05:00:55.828Z,3.00
2023-01-29T05:03:25.977Z,3.00
2023-01-29T05:05:55.221Z,2.96
2023-01-29T05:08:24.628Z,2.95
2023-01-29T05:10:54.806Z,2.98
2023-01-29T05:13:23.659Z,3.03
2023-01-29T05:16:16.950Z,3.04
2023-01-29T05:18:43.727Z,3.11
2023-01-29T05:21:10.170Z,3.04
2023-01-29T05:23:37.077Z,3.04
2023-01-29T05:26:04.413Z,3.09
2023-01-29T05:28:30.977Z,3.06
2023-01-29T05:30:58.185Z,3.15
2023-01-29T05:33:29.918Z,3.12
2023-01-29T05:35:58.733Z,3.05
2023-01-29T05:38:25.477Z,3.09
2023-01-29T05:40:51.920Z,3.01
2023-01-29T05:43:23.828Z,2.95
2023-01-29T05:45:54.174Z,3.03
2023-01-29T05:48:20.788Z,3.03
2023-01-29T05:50:47.200Z,3.07
2023-01-29T05:53:13.723Z,2.84
2023-01-29T05:55:40.098Z,2.80
2023-01-29T05:58:06.657Z,2.85
2023-01-29T06:00:33.067Z,2.94
2023-01-29T06:02:59.979Z,3.01
2023-01-29T06:05:26.462Z,3.01
2023-01-29T06:07:52.839Z,2.96
2023-01-29T06:10:19.702Z,2.92
2023-01-29T06:12:46.224Z,2.76
2023-01-29T06:15:13.096Z,2.92
2023-01-29T06:17:39.687Z,2.92
2023-01-29T06:20:06.757Z,2.89
2023-01-29T06:22:33.716Z,2.86
2023-01-29T06:25:00.435Z,2.96
2023-01-29T06:27:26.947Z,2.90
2023-01-29T06:29:53.330Z,2.68
2023-01-29T06:32:19.863Z,2.70
2023-01-29T06:34:48.617Z,2.38
2023-01-29T06:37:16.037Z,2.56
2023-01-29T06:39:42.620Z,2.67
2023-01-29T06:42:10.052Z,2.80
2023-01-29T06:44:36.877Z,2.84
2023-01-29T06:47:03.357Z,2.87
2023-01-29T06:49:29.889Z,2.84
2023-01-29T06:51:56.708Z,2.91
2023-01-29T06:54:23.235Z,2.97
2023-01-29T06:56:49.706Z,2.93
2023-01-29T06:59:16.330Z,3.02
2023-01-29T07:01:44.272Z,3.04
2023-01-29T07:04:11.479Z,2.98
2023-01-29T07:06:38.032Z,3.03
2023-01-29T07:09:04.908Z,3.12
2023-01-29T07:11:32.043Z,2.94
2023-01-29T07:13:58.654Z,3.03
2023-01-29T07:16:26.262Z,2.96
2023-01-29T07:18:53.092Z,3.06
2023-01-29T07:21:19.537Z,3.14
2023-01-29T07:23:46.504Z,3.02
2023-01-29T07:26:12.995Z,2.92
2023-01-29T07:28:40.891Z,2.95
2023-01-29T07:31:08.571Z,2.91
2023-01-29T07:33:35.257Z,2.90
2023-01-29T07:36:01.890Z,3.00
2023-01-29T07:38:28.344Z,2.95
2023-01-29T07:40:55.047Z,3.02
2023-01-29T07:43:21.556Z,3.06
2023-01-29T07:45:48.055Z,3.14
2023-01-29T07:48:14.664Z,3.18
2023-01-29T07:50:41.766Z,3.34
2023-01-29T07:53:15.975Z,3.32
2023-01-29T07:55:45.695Z,3.32
2023-01-29T07:58:13.521Z,3.27
2023-01-29T08:00:40.248Z,3.22
2023-01-29T08:03:11.488Z,3.21
2023-01-29T08:05:38.157Z,3.35
2023-01-29T08:08:07.322Z,3.51
2023-01-29T08:10:38.574Z,3.52
2023-01-29T08:13:05.882Z,3.57
2023-01-29T08:15:35.184Z,3.51
2023-01-29T08:18:05.529Z,3.51
2023-01-29T08:20:32.091Z,3.11
2023-01-29T08:23:04.521Z,3.16
2023-01-29T08:25:31.416Z,3.26
2023-01-29T08:27:59.296Z,3.42
2023-01-29T08:30:27.851Z,3.65
2023-01-29T08:32:56.120Z,3.76
2023-01-29T08:35:23.227Z,3.87
2023-01-29T08:37:59.355Z,3.97
2023-01-29T08:40:27.408Z,4.08
2023-01-29T08:43:02.512Z,4.08
2023-01-29T08:45:34.715Z,4.25
2023-01-29T08:48:01.529Z,4.29
2023-01-29T08:50:30.622Z,4.31
2023-01-29T08:52:59.196Z,4.37
2023-01-29T08:55:26.467Z,4.63
2023-01-29T08:57:52.949Z,4.87
2023-01-29T09:00:19.934Z,4.97
2023-01-29T09:02:46.615Z,3.94
2023-01-29T09:05:13.092Z,3.69
2023-01-29T09:07:39.550Z,3.94
2023-01-29T09:10:06.240Z,4.35
2023-01-29T09:12:32.673Z,4.64
2023-01-29T09:14:59.229Z,4.33
2023-01-29T09:17:25.733Z,4.53
2023-01-29T09:19:53.071Z,4.47
2023-01-29T09:22:20.421Z,4.63
2023-01-29T09:24:46.982Z,4.88
2023-01-29T09:27:13.440Z,5.05
2023-01-29T09:29:39.973Z,4.76
2023-01-29T09:32:06.879Z,4.62
2023-01-29T09:34:33.953Z,4.54
2023-01-29T09:37:00.411Z,4.86
2023-01-29T09:39:26.894Z,4.85
2023-01-29T09:42:11.511Z,4.72
2023-01-29T09:45:14.028Z,4.48
2023-01-29T09:47:40.663Z,4.08
2023-01-29T09:50:32.873Z,4.12
2023-01-29T09:53:07.324Z,4.78
2023-01-29T09:55:42.063Z,5.19
2023-01-29T09:58:25.732Z,5.40
2023-01-29T10:01:08.051Z,5.43
2023-01-29T10:03:55.193Z,5.59
2023-01-29T10:06:27.602Z,5.87
2023-01-29T10:09:18.347Z,5.85
2023-01-29T10:12:23.458Z,6.09
2023-01-29T10:15:12.105Z,5.96
2023-01-29T10:18:03.006Z,5.76
2023-01-29T10:20:44.161Z,5.62
2023-01-29T10:23:35.494Z,5.85
2023-01-29T10:26:02.260Z,5.59
2023-01-29T10:28:38.081Z,5.22
2023-01-29T10:31:11.559Z,5.63
2023-01-29T10:33:54.533Z,6.52
2023-01-29T10:36:35.887Z,7.18
2023-01-29T10:39:02.448Z,7.54
2023-01-29T10:41:44.668Z,7.91
2023-01-29T10:44:29.974Z,7.25
2023-01-29T10:47:12.502Z,6.37
2023-01-29T10:49:57.706Z,6.38
2023-01-29T10:52:33.076Z,6.53
2023-01-29T10:55:27.423Z,6.87
2023-01-29T10:58:15.637Z,7.18
2023-01-29T11:00:42.681Z,7.63
2023-01-29T11:03:26.856Z,8.02
2023-01-29T11:06:05.120Z,8.42
2023-01-29T11:08:41.626Z,8.65
2023-01-29T11:11:19.043Z,7.81
2023-01-29T11:14:05.151Z,8.06
2023-01-29T11:16:33.369Z,8.39
2023-01-29T11:19:01.145Z,8.13
2023-01-29T11:21:29.266Z,7.21
2023-01-29T11:24:15.773Z,5.82
2023-01-29T11:26:43.551Z,7.06
2023-01-29T11:29:34.463Z,7.85
2023-01-29T11:32:05.477Z,7.37
2023-01-29T11:34:31.927Z,8.18
2023-01-29T11:37:06.936Z,8.01
2023-01-29T11:39:33.404Z,8.36
2023-01-29T11:42:04.755Z,8.56
2023-01-29T11:44:41.036Z,8.46
2023-01-29T11:47:16.237Z,8.16
2023-01-29T11:49:51.276Z,8.21
2023-01-29T11:52:20.808Z,7.06
2023-01-29T11:54:58.346Z,7.16
2023-01-29T11:57:30.290Z,6.58
2023-01-29T12:00:06.745Z,6.96
2023-01-29T12:02:38.749Z,6.75
2023-01-29T12:05:18.033Z,6.50
2023-01-29T12:07:50.353Z,6.15
2023-01-29T12:10:41.042Z,6.84
2023-01-29T12:13:21.450Z,7.10
2023-01-29T12:15:49.172Z,7.06
2023-01-29T12:18:37.748Z,7.54
2023-01-29T12:21:05.063Z,7.75
2023-01-29T12:23:32.256Z,6.77
2023-01-29T12:26:01.702Z,5.69
2023-01-29T12:29:15.852Z,4.86
2023-01-29T12:32:11.362Z,5.91
2023-01-29T12:35:17.288Z,6.24
2023-01-29T12:38:21.720Z,6.48
2023-01-29T12:40:55.245Z,5.99
2023-01-29T12:43:32.762Z,6.64
2023-01-29T12:46:01.471Z,6.16
2023-01-29T12:48:33.045Z,5.74
2023-01-29T12:51:20.654Z,6.32
2023-01-29T12:54:21.649Z,5.91
2023-01-29T12:56:53.069Z,4.74
2023-01-29T12:59:31.710Z,5.16
2023-01-29T13:02:11.283Z,5.90
2023-01-29T13:04:48.650Z,6.33
2023-01-29T13:07:20.709Z,6.10
2023-01-29T13:09:53.035Z,6.50
2023-01-29T13:12:21.547Z,6.57
2023-01-29T13:15:06.739Z,6.70
2023-01-29T13:17:38.026Z,6.27
2023-01-29T13:20:21.159Z,6.03
2023-01-29T13:22:50.411Z,6.07
2023-01-29T13:25:22.231Z,6.05
2023-01-29T13:27:49.418Z,6.29
2023-01-29T13:30:30.539Z,6.21
2023-01-29T13:33:09.434Z,6.46
2023-01-29T13:35:42.860Z,6.43
2023-01-29T13:38:26.842Z,6.64
2023-01-29T13:40:56.651Z,6.70
2023-01-29T13:43:24.036Z,6.71
2023-01-29T13:45:53.918Z,5.89
2023-01-29T13:48:26.879Z,5.32
2023-01-29T13:50:56.394Z,5.33
2023-01-29T13:53:27.276Z,4.97
2023-01-29T13:55:53.736Z,5.38
2023-01-29T13:58:32.061Z,5.23
2023-01-29T14:01:01.478Z,3.70
2023-01-29T14:03:29.938Z,4.23
2023-01-29T14:06:02.587Z,4.83
2023-01-29T14:08:35.124Z,5.31
2023-01-29T14:11:35.057Z,3.69
2023-01-29T14:14:01.566Z,3.17
2023-01-29T14:16:34.910Z,3.85
2023-01-29T14:19:04.643Z,4.14
2023-01-29T14:21:33.962Z,3.30
2023-01-29T14:24:18.394Z,3.42
2023-01-29T14:26:47.653Z,4.39
2023-01-29T14:29:35.084Z,3.28
2023-01-29T14:32:07.635Z,4.00
2023-01-29T14:34:41.586Z,3.58
2023-01-29T14:37:17.067Z,4.34
2023-01-29T14:39:56.217Z,3.88
2023-01-29T14:42:24.697Z,4.40
2023-01-29T14:44:57.258Z,4.70
2023-01-29T14:47:33.021Z,4.63
2023-01-29T14:50:01.807Z,4.10
2023-01-29T14:52:43.041Z,3.76
2023-01-29T14:55:20.992Z,4.16
2023-01-29T14:57:49.151Z,4.47
2023-01-29T15:00:27.351Z,4.74
2023-01-29T15:03:02.003Z,4.75
2023-01-29T15:05:35.893Z,4.46
2023-01-29T15:08:19.964Z,4.43
2023-01-29T15:11:13.589Z,3.92
2023-01-29T15:13:58.612Z,3.40
2023-01-29T15:16:31.228Z,3.68
2023-01-29T15:19:12.861Z,3.94
2023-01-29T15:21:39.341Z,4.07
2023-01-29T15:24:07.091Z,3.53
2023-01-29T15:26:35.871Z,3.48
2023-01-29T15:29:04.578Z,3.67
2023-01-29T15:31:32.128Z,3.83
2023-01-29T15:34:04.994Z,4.05
2023-01-29T15:36:32.111Z,3.95
2023-01-29T15:39:23.499Z,3.55
2023-01-29T15:41:52.100Z,3.37
2023-01-29T15:44:21.782Z,3.54
2023-01-29T15:46:57.821Z,3.59
2023-01-29T15:49:31.078Z,3.62
2023-01-29T15:52:04.467Z,3.49
2023-01-29T15:54:33.033Z,3.22
2023-01-29T15:57:00.596Z,3.26
2023-01-29T15:59:34.678Z,3.39
2023-01-29T16:02:32.860Z,3.31
2023-01-29T16:04:59.878Z,3.19
2023-01-29T16:07:27.629Z,3.02
2023-01-29T16:09:55.464Z,2.98
2023-01-29T16:12:22.726Z,2.88
2023-01-29T16:14:50.416Z,2.79
2023-01-29T16:17:40.789Z,2.75
2023-01-29T16:20:28.295Z,2.63
2023-01-29T16:22:54.892Z,2.36
2023-01-29T16:25:21.423Z,2.30
2023-01-29T16:27:48.039Z,2.33
2023-01-29T16:30:16.483Z,2.30
2023-01-29T16:32:43.145Z,2.34
2023-01-29T16:35:16.554Z,2.27
2023-01-29T16:37:48.596Z,2.29
2023-01-29T16:40:37.654Z,2.18
2023-01-29T16:43:19.375Z,2.13
2023-01-29T16:46:05.847Z,2.09
2023-01-29T16:48:35.175Z,2.03
2023-01-29T16:51:26.718Z,1.92
2023-01-29T16:54:01.696Z,1.82
2023-01-29T16:56:31.062Z,1.77
2023-01-29T16:58:58.625Z,1.64
2023-01-29T17:01:28.595Z,1.56
2023-01-29T17:04:09.984Z,1.58
2023-01-29T17:06:36.816Z,1.40
2023-01-29T17:09:04.677Z,1.42
2023-01-29T17:11:41.729Z,1.28
2023-01-29T17:14:09.574Z,1.20
2023-01-29T17:16:46.742Z,1.12
2023-01-29T17:19:18.426Z,1.05
2023-01-29T17:21:45.129Z,1.08
2023-01-29T17:24:11.589Z,1.21
2023-01-29T17:26:39.030Z,1.26
2023-01-29T17:29:05.531Z,1.22
2023-01-29T17:31:32.049Z,1.23
2023-01-29T17:33:58.457Z,1.21
2023-01-29T17:36:25.783Z,1.17
2023-01-29T17:38:52.227Z,1.14
2023-01-29T17:41:25.176Z,1.09
2023-01-29T17:43:51.821Z,0.87
2023-01-29T17:46:19.447Z,1.03
2023-01-29T17:48:46.654Z,1.02
2023-01-29T17:51:16.087Z,1.12
2023-01-29T17:53:45.971Z,1.34
2023-01-29T17:56:23.831Z,1.33
2023-01-29T17:58:50.395Z,1.25
2023-01-29T18:01:16.799Z,1.25
2023-01-29T18:03:43.515Z,1.20
2023-01-29T18:06:24.300Z,1.12
2023-01-29T18:08:50.755Z,1.02
2023-01-29T18:11:17.303Z,1.01
2023-01-29T18:13:43.697Z,0.94
2023-01-29T18:16:10.168Z,0.95
2023-01-29T18:18:36.691Z,0.95
2023-01-29T18:21:03.226Z,0.94
2023-01-29T18:23:31.302Z,0.96
2023-01-29T18:25:57.823Z,1.01
2023-01-29T18:28:24.718Z,0.97
2023-01-29T18:30:51.266Z,0.92
2023-01-29T18:33:18.075Z,0.87
2023-01-29T18:35:45.260Z,0.85
2023-01-29T18:38:12.720Z,0.86
2023-01-29T18:40:39.425Z,0.81
2023-01-29T18:43:06.057Z,0.78
2023-01-29T18:45:32.681Z,0.85
2023-01-29T18:47:59.283Z,0.96
2023-01-29T18:50:26.440Z,0.96
2023-01-29T18:52:55.499Z,0.82
2023-01-29T18:55:22.854Z,0.67
2023-01-29T18:58:26.084Z,0.64
2023-01-29T19:00:43.771Z,0.76
2023-01-29T19:03:10.680Z,0.60
2023-01-29T19:05:37.275Z,0.37
2023-01-29T19:08:05.282Z,0.67
2023-01-29T19:10:31.738Z,0.62
2023-01-29T19:12:58.423Z,0.88
2023-01-29T19:15:25.018Z,0.61
2023-01-29T19:17:51.650Z,0.59
2023-01-29T19:20:18.339Z,0.69
2023-01-29T19:22:45.116Z,0.56
2023-01-29T19:25:12.814Z,0.64
2023-01-29T19:27:39.450Z,0.85
2023-01-29T19:30:06.349Z,0.39
2023-01-29T19:32:33.341Z,0.72
2023-01-29T19:34:59.781Z,0.57
2023-01-29T19:37:26.217Z,0.41
2023-01-29T19:39:53.806Z,0.46
2023-01-29T19:42:20.945Z,0.64
2023-01-29T19:44:47.653Z,0.58
2023-01-29T19:47:14.178Z,0.19
2023-01-29T19:49:40.664Z,0.51
2023-01-29T19:52:14.882Z,0.31
2023-01-29T19:54:46.074Z,0.68
2023-01-29T19:57:12.501Z,0.35
2023-01-29T19:59:39.207Z,0.79
2023-01-29T20:02:06.259Z,0.71
2023-01-29T20:04:32.860Z,0.63
2023-01-29T20:06:59.551Z,0.79
2023-01-29T20:09:26.119Z,0.09
2023-01-29T20:11:52.563Z,0.15
2023-01-29T20:14:19.017Z,0.13
2023-01-29T20:16:45.411Z,0.23
2023-01-29T20:19:14.011Z,0.16
2023-01-29T20:21:41.825Z,0.22
2023-01-29T20:24:12.375Z,0.49
2023-01-29T20:26:39.093Z,0.43
2023-01-29T20:29:06.493Z,0.55
2023-01-29T20:31:33.285Z,0.18
2023-01-29T20:33:59.807Z,0.19
2023-01-29T20:36:26.334Z,0.45
2023-01-29T20:38:52.793Z,0.25
2023-01-29T20:41:19.856Z,0.41
2023-01-29T20:43:47.059Z,0.32
2023-01-29T20:46:14.182Z,0.72
2023-01-29T20:48:42.006Z,0.83
2023-01-29T20:51:13.062Z,0.79
2023-01-29T20:53:41.121Z,0.78
2023-01-29T20:56:08.950Z,0.80
2023-01-29T20:58:37.566Z,0.94
2023-01-29T21:01:12.188Z,0.96
2023-01-29T21:03:39.836Z,0.85
2023-01-29T21:06:08.575Z,0.76
2023-01-29T21:08:35.841Z,0.63
2023-01-29T21:11:03.332Z,0.79
2023-01-29T21:13:29.856Z,0.45
2023-01-29T21:15:56.340Z,0.78
2023-01-29T21:18:22.933Z,0.75
2023-01-29T21:20:50.152Z,0.89
2023-01-29T21:23:16.717Z,0.81
2023-01-29T21:25:43.211Z,0.78
2023-01-29T21:28:09.689Z,0.65
2023-01-29T21:30:36.209Z,0.65
2023-01-29T21:33:03.266Z,0.42
2023-01-29T21:35:29.836Z,0.46
2023-01-29T21:37:56.312Z,0.14
2023-01-29T21:40:25.196Z,-0.16
2023-01-29T21:43:10.698Z,-0.20
2023-01-29T21:45:38.529Z,-0.12
2023-01-29T21:48:05.598Z,-0.07
2023-01-29T21:50:32.384Z,-0.51
2023-01-29T21:52:58.806Z,-0.19
2023-01-29T21:55:25.406Z,-0.48
2023-01-29T21:57:52.028Z,-0.37
2023-01-29T22:00:19.260Z,-0.43
2023-01-29T22:02:46.416Z,-0.24
2023-01-29T22:05:19.323Z,-0.28
2023-01-29T22:07:46.868Z,0.10
2023-01-29T22:10:13.640Z,-0.22
2023-01-29T22:12:40.489Z,-0.11
2023-01-29T22:15:08.182Z,-0.35
2023-01-29T22:17:35.293Z,-0.10
2023-01-29T22:20:01.968Z,-0.09
2023-01-29T22:22:28.616Z,-0.07
2023-01-29T22:24:56.399Z,0.30
2023-01-29T22:27:22.869Z,0.46
2023-01-29T22:29:49.322Z,0.06
2023-01-29T22:32:16.275Z,-0.20
2023-01-29T22:34:42.705Z,-0.43
2023-01-29T22:37:09.309Z,-0.32
2023-01-29T22:39:35.715Z,-0.32
2023-01-29T22:42:02.196Z,-0.43
2023-01-29T22:44:28.652Z,-0.27
2023-01-29T22:46:55.097Z,-0.23
2023-01-29T22:49:21.531Z,-0.46
2023-01-29T22:51:48.111Z,-0.53
2023-01-29T22:54:15.523Z,-0.43
2023-01-29T22:56:42.052Z,-0.54
2023-01-29T22:59:10.121Z,-0.31
2023-01-29T23:01:36.725Z,-0.16
2023-01-29T23:04:03.227Z,0.02
2023-01-29T23:06:29.710Z,-0.14
2023-01-29T23:08:56.161Z,-0.38
2023-01-29T23:11:23.541Z,-0.27
2023-01-29T23:13:52.545Z,-0.07
2023-01-29T23:16:21.122Z,0.16
2023-01-29T23:18:49.785Z,0.34
2023-01-29T23:21:16.257Z,0.39
2023-01-29T23:23:44.936Z,0.31
2023-01-29T23:26:30.945Z,0.48
2023-01-29T23:28:57.682Z,0.54
2023-01-29T23:31:24.537Z,0.52
2023-01-29T23:33:51.045Z,0.24
2023-01-29T23:36:17.618Z,-0.16
2023-01-29T23:38:44.094Z,-0.12
2023-01-29T23:41:10.608Z,0.00
2023-01-29T23:43:37.020Z,-0.01
2023-01-29T23:46:03.397Z,-0.03
2023-01-29T23:48:29.924Z,-0.33
2023-01-29T23:50:56.414Z,-0.45
2023-01-29T23:53:22.932Z,-0.50
2023-01-29T23:56:00.193Z,-0.94
2023-01-29T23:58:26.703Z,-0.64
